YHGR weather

Hugh River Airport
Northern Territory, Australia

Public forecast

Using degrees Celsius for public forecast. Weather courtesy of forecast.io.

METAR (pilot weather report)

Closest report is Alice Springs Airport, 38.3 nm (70.9 km) NNE. Retrieved 2019/03/26 05:30 UTC (29 minutes ago):

YBAS 260530Z AUTO 13015KT 9999 // ////// 29/05 Q1016 RF00.0/000.0

TAF (pilot weather forecast)

Forecast is more than 12 hours old.

Closest forecast is Alice Springs Airport, 38.3 nm (70.9 km) NNE. Retrieved 2019/03/25 00:00 UTC (1 day ago):

TAF YBAS 252317Z 2600/2624 14018G28KT CAVOK FM260900 14010KT CAVOK FM262300 14014KT CAVOK